Time;durP1;ratioP1;P1;durP2;ratioP2;P2;SDS_P1;SDS_P2;PMS_P1;PMS_P2;Temp;Humidity;BMP_temperature;BMP_pressure;BME280_temperature;BME280_humidity;BME280_pressure;Samples;Min_cycle;Max_cycle;Signal;HPM_P1;HPM_P2
2022/04/29 00:00:34;;;;;;;17.73;8.32;;;9.40;99.90;;;;;;5014411;28;20032;-63
2022/04/29 00:03:00;;;;;;;17.27;8.38;;;9.30;99.90;;;;;;5014001;28;20022;-61
2022/04/29 00:05:26;;;;;;;16.80;8.23;;;9.30;99.90;;;;;;5013769;28;20167;-63
2022/04/29 00:07:52;;;;;;;21.05;9.00;;;9.30;99.90;;;;;;5031902;22;20049;-62
2022/04/29 00:10:18;;;;;;;17.83;8.30;;;9.20;99.90;;;;;;5030093;28;20039;-62
2022/04/29 00:12:46;;;;;;;18.48;8.40;;;9.10;99.90;;;;;;5031863;28;20048;-61
2022/04/29 00:15:14;;;;;;;16.65;8.50;;;9.10;99.90;;;;;;5047131;28;20026;-61
2022/04/29 00:17:40;;;;;;;16.42;8.05;;;;;;;;;;5031451;28;20405;-63
2022/04/29 00:20:07;;;;;;;75.57;44.35;;;;;;;;;;5032614;28;20025;-60
2022/04/29 00:22:33;;;;;;;42.15;28.20;;;;;;;;;;5035260;28;20040;-60
2022/04/29 00:24:59;;;;;;;18.40;9.70;;;;;;;;;;5035214;28;20045;-64
2022/04/29 00:27:26;;;;;;;16.67;8.52;;;;;;;;;;5035201;28;20017;-64
2022/04/29 00:29:52;;;;;;;18.17;7.95;;;;;;;;;;5034968;28;20083;-64
2022/04/29 00:32:18;;;;;;;18.80;8.18;;;;;;;;;;5035018;28;20025;-62
2022/04/29 00:34:44;;;;;;;19.08;8.50;;;;;;;;;;5034681;28;20633;-64
2022/04/29 00:37:10;;;;;;;17.83;8.80;;;;;;;;;;5034736;28;20022;-63
2022/04/29 00:39:36;;;;;;;17.27;8.80;;;;;;;;;;5034721;28;20413;-63
2022/04/29 00:42:16;;;;;;;18.77;8.88;;;;;;;;;;5034612;28;20478;-64
2022/04/29 00:44:43;;;;;;;17.80;8.27;;;;;;;;;;5034502;28;20036;-64
2022/04/29 00:47:10;;;;;;;20.40;8.85;;;;;;;;;;5034533;28;20026;-64
2022/04/29 00:49:36;;;;;;;19.77;9.15;;;;;;;;;;5049815;28;20018;-63
2022/04/29 00:52:05;;;;;;;19.35;8.68;;;;;;;;;;5050510;28;20115;-63
2022/04/29 00:54:33;;;;;;;17.85;8.70;;;;;;;;;;5050408;28;20026;-65
2022/04/29 00:56:59;;;;;;;16.50;8.33;;;;;;;;;;5035231;28;20417;-62
2022/04/29 00:59:32;;;;;;;21.70;9.15;;;;;;;;;;5049662;28;20504;-62
2022/04/29 01:01:58;;;;;;;20.25;8.75;;;;;;;;;;5034146;28;20057;-63
2022/04/29 01:04:32;;;;;;;16.63;8.60;;;;;;;;;;5034052;28;20029;-62
2022/04/29 01:06:58;;;;;;;17.65;9.38;;;;;;;;;;5034470;28;20024;-63
2022/04/29 01:09:24;;;;;;;18.88;9.27;;;;;;;;;;5049153;28;20037;-63
2022/04/29 01:11:51;;;;;;;19.30;9.00;;;;;;;;;;5049635;28;20028;-64
2022/04/29 01:14:17;;;;;;;20.05;8.93;;;;;;;;;;5049348;28;20075;-62
2022/04/29 01:16:43;;;;;;;20.50;9.00;;;;;;;;;;5049421;28;20041;-63
2022/04/29 01:19:09;;;;;;;29.00;11.05;;;;;;;;;;5034026;28;20032;-63
2022/04/29 01:21:35;;;;;;;19.63;8.98;;;;;;;;;;5049262;28;20374;-61
2022/04/29 01:24:01;;;;;;;19.83;8.90;;;;;;;;;;5049147;28;20030;-64
2022/04/29 01:26:27;;;;;;;19.88;9.30;;;;;;;;;;5033956;28;20036;-61
2022/04/29 01:28:53;;;;;;;23.67;10.05;;;;;;;;;;5033550;28;20038;-62
2022/04/29 01:31:22;;;;;;;20.25;8.82;;;;;;;;;;5033784;28;20025;-62
2022/04/29 01:33:49;;;;;;;25.50;10.43;;;;;;;;;;5033952;28;20401;-62
2022/04/29 01:36:15;;;;;;;20.58;8.98;;;;;;;;;;5033906;28;20473;-62
2022/04/29 01:38:41;;;;;;;20.85;9.82;;;;;;;;;;5049022;28;20028;-64
2022/04/29 01:41:07;;;;;;;22.70;9.60;;;;;;;;;;5033513;28;20029;-63
2022/04/29 01:43:36;;;;;;;19.55;9.25;;;;;;;;;;5033662;28;20037;-62
2022/04/29 01:46:03;;;;;;;19.33;11.30;;;;;;;;;;5048846;28;20026;-64
2022/04/29 01:48:29;;;;;;;19.90;9.93;;;;;;;;;;5033432;28;20030;-63
2022/04/29 01:50:56;;;;;;;21.88;9.38;;;;;;;;;;5033582;28;20359;-61
2022/04/29 01:53:22;;;;;;;23.63;10.55;;;;;;;;;;5048407;28;20363;-64
2022/04/29 01:55:48;;;;;;;21.70;10.95;;;;;;;;;;5033326;28;20029;-64
2022/04/29 01:58:14;;;;;;;22.73;9.82;;;;;;;;;;5048631;28;20025;-64
2022/04/29 02:00:40;;;;;;;21.15;9.60;;;;;;;;;;5033023;28;20032;-63
2022/04/29 02:03:06;;;;;;;21.35;10.88;;;;;;;;;;5033392;28;20101;-64
2022/04/29 02:05:33;;;;;;;22.83;10.35;;;;;;;;;;5033075;28;20398;-65
2022/04/29 02:08:00;;;;;;;20.20;9.88;;;;;;;;;;5032906;28;20029;-62
2022/04/29 02:10:26;;;;;;;25.48;11.27;;;;;;;;;;5033199;28;20036;-62
2022/04/29 02:12:52;;;;;;;21.50;9.90;;;;;;;;;;5048279;28;20026;-64
2022/04/29 02:15:20;;;;;;;28.48;11.25;;;;;;;;;;5032942;28;20128;-65
2022/04/29 02:17:46;;;;;;;20.90;10.95;;;;;;;;;;5048535;28;20083;-64
2022/04/29 02:20:12;;;;;;;21.55;11.25;;;;;;;;;;5033089;28;20105;-64
2022/04/29 02:22:39;;;;;;;21.63;11.82;;;;;;;;;;5032968;28;20100;-64
2022/04/29 02:25:06;;;;;;;26.15;11.85;;;;;;;;;;5032819;28;20040;-65
2022/04/29 02:27:32;;;;;;;23.13;11.50;;;;;;;;;;5032829;28;20064;-64
2022/04/29 02:29:58;;;;;;;21.42;11.52;;;;;;;;;;5047838;28;20028;-64
2022/04/29 02:32:24;;;;;;;22.00;11.80;;;;;;;;;;5032826;28;20473;-62
2022/04/29 02:34:50;;;;;;;24.77;11.82;;;;;;;;;;5032721;28;20021;-64
2022/04/29 02:37:16;;;;;;;27.60;13.35;;;;;;;;;;5032641;28;20032;-64
2022/04/29 02:39:42;;;;;;;24.33;12.52;;;;;;;;;;5032756;28;20029;-63
2022/04/29 02:42:09;;;;;;;21.63;11.30;;;;;;;;;;5032472;28;20018;-64
2022/04/29 02:44:35;;;;;;;25.13;11.52;;;;;;;;;;5032388;28;20025;-64
2022/04/29 02:47:07;;;;;;;26.92;11.98;;;;;;;;;;5032707;28;20021;-64
2022/04/29 02:49:33;;;;;;;27.77;11.90;;;;;;;;;;5032231;28;20353;-64
2022/04/29 02:51:59;;;;;;;23.33;10.98;;;;;;;;;;5032465;28;20509;-62
2022/04/29 02:54:25;;;;;;;23.92;12.05;;;;;;;;;;5032509;28;20021;-63
2022/04/29 02:56:52;;;;;;;21.02;11.35;;;;;;;;;;5047875;28;20056;-62
2022/04/29 02:59:21;;;;;;;22.35;12.65;;;;;;;;;;5032024;28;20029;-62
2022/04/29 03:01:47;;;;;;;25.20;11.52;;;;;;;;;;5047629;28;20434;-62
2022/04/29 03:04:13;;;;;;;23.25;11.10;;;;;;;;;;5031920;28;20029;-64
2022/04/29 03:06:39;;;;;;;22.20;11.18;;;;;;;;;;5032481;28;20442;-64
2022/04/29 03:09:05;;;;;;;24.58;11.75;;;;;;;;;;5047118;28;20116;-63
2022/04/29 03:11:31;;;;;;;22.42;11.00;;;;;;;;;;5047603;28;20399;-64
2022/04/29 03:13:57;;;;;;;25.60;12.43;;;;;;;;;;5032093;28;20026;-63
2022/04/29 03:16:23;;;;;;;22.00;11.45;;;;;;;;;;5047293;28;20033;-63
2022/04/29 03:18:49;;;;;;;22.40;12.15;;;;;;;;;;5031816;28;20437;-64
2022/04/29 03:21:18;;;;;;;26.40;12.20;;;;;;;;;;5031981;28;20026;-62
2022/04/29 03:23:46;;;;;;;29.27;12.40;;;;;;;;;;5047287;28;20044;-64
2022/04/29 03:26:12;;;;;;;22.20;12.23;;;;;;;;;;5031858;28;20025;-65
2022/04/29 03:28:38;;;;;;;22.35;11.38;;;;;;;;;;5031808;28;20029;-62
2022/04/29 03:31:04;;;;;;;24.25;12.32;;;;;;;;;;5031700;28;20017;-64
2022/04/29 03:33:30;;;;;;;26.90;12.40;;;;;;;;;;5031820;28;20026;-64
2022/04/29 03:35:56;;;;;;;25.20;12.20;;;;;;;;;;5031666;28;20029;-65
2022/04/29 03:38:22;;;;;;;23.38;11.77;;;;;;;;;;5046882;28;20025;-64
2022/04/29 03:40:50;;;;;;;23.25;11.90;;;;;;;;;;5031814;28;20025;-64
2022/04/29 03:43:16;;;;;;;25.45;12.68;;;;;;;;;;5047241;28;20029;-64
2022/04/29 03:45:42;;;;;;;24.52;12.55;;;;;;;;;;5046879;28;20552;-63
2022/04/29 03:48:08;;;;;;;26.10;12.23;;;;;;;;;;5047113;28;20025;-60
2022/04/29 03:50:34;;;;;;;25.08;12.75;;;;;;;;;;5046819;28;20029;-63
2022/04/29 03:53:01;;;;;;;24.48;12.32;;;;;;;;;;5046967;28;20048;-63
2022/04/29 03:55:29;;;;;;;26.13;12.75;;;;;;;;;;5034963;28;20393;-64
2022/04/29 03:57:56;;;;;;;30.48;13.15;;;;;;;;;;5035381;28;20025;-64
2022/04/29 04:00:22;;;;;;;25.05;11.68;;;;;;;;;;5050718;28;20060;-62
2022/04/29 04:02:49;;;;;;;25.88;12.90;;;;;;;;;;5035440;28;20414;-63
2022/04/29 04:05:15;;;;;;;24.08;12.27;;;;;;;;;;5035436;28;20029;-62
2022/04/29 04:07:41;;;;;;;25.17;13.00;;;;;;;;;;5035302;28;20390;-63
2022/04/29 04:10:08;;;;;;;24.88;12.93;;;;;;;;;;5035112;28;20441;-64
2022/04/29 04:12:41;;;;;;;24.60;12.85;;;;;;;;;;5050862;28;20018;-65
2022/04/29 04:15:07;;;;;;;31.42;12.77;;;;;;;;;;5035109;28;20021;-62
2022/04/29 04:17:33;;;;;;;28.30;13.65;;;;;;;;;;5035081;28;20064;-62
2022/04/29 04:19:59;;;;;;;22.83;13.18;;;;;;;;;;5035055;28;20379;-63
2022/04/29 04:22:27;;;;;;;29.27;13.57;;;;;;;;;;5035200;28;20029;-62
2022/04/29 04:24:53;;;;;;;25.58;12.55;;;;;;;;;;5034894;28;20029;-61
2022/04/29 04:27:19;;;;;;;23.67;12.93;;;;;;;;;;5034893;28;20028;-63
2022/04/29 04:29:45;;;;;;;27.13;12.80;;;;;;;;;;5034625;28;20418;-64
2022/04/29 04:32:11;;;;;;;23.00;13.35;;;;;;;;;;5050118;28;20061;-63
2022/04/29 04:34:53;;;;;;;26.67;12.93;;;;;;;;;;5049791;28;20123;-64
2022/04/29 04:37:23;;;;;;;24.30;12.93;;;9.10;99.90;;;;;;5034811;28;20097;-64
2022/04/29 04:39:49;;;;;;;26.77;14.02;;;7.70;99.90;;;;;;5034590;28;20045;-63
2022/04/29 04:42:16;;;;;;;25.73;14.45;;;7.70;99.90;;;;;;5034749;28;20041;-64
2022/04/29 04:44:42;;;;;;;29.08;13.65;;;7.80;99.90;;;;;;5049878;28;20124;-62
2022/04/29 04:47:08;;;;;;;24.40;13.38;;;7.80;99.90;;;;;;5034634;28;20025;-63
2022/04/29 04:49:35;;;;;;;24.70;12.88;;;7.70;99.90;;;;;;5034598;28;20029;-64
2022/04/29 04:52:01;;;;;;;28.92;12.90;;;7.60;99.90;;;;;;5033227;28;20032;-63
2022/04/29 04:54:26;;;;;;;26.13;13.48;;;7.50;99.90;;;;;;5034410;28;20438;-61
2022/04/29 04:56:52;;;;;;;24.77;14.25;;;7.40;99.90;;;;;;5034306;28;20029;-61
2022/04/29 04:59:18;;;;;;;29.67;13.80;;;7.40;99.90;;;;;;5032983;28;20390;-61
2022/04/29 05:01:43;;;;;;;23.00;12.30;;;7.40;99.90;;;;;;5034477;28;20029;-62
2022/04/29 05:04:09;;;;;;;25.98;12.20;;;7.30;99.90;;;;;;5032854;28;20025;-62
2022/04/29 05:06:38;;;;;;;30.25;13.13;;;7.40;99.90;;;;;;5032266;28;20032;-61
2022/04/29 05:09:04;;;;;;;27.02;12.90;;;7.40;99.90;;;;;;5034185;28;20060;-64
2022/04/29 05:11:30;;;;;;;29.23;13.27;;;7.40;99.90;;;;;;5034515;28;20025;-63
2022/04/29 05:13:57;;;;;;;26.77;13.02;;;7.30;99.90;;;;;;5033806;28;20419;-63
2022/04/29 05:16:23;;;;;;;23.67;12.43;;;7.40;99.90;;;;;;5049328;28;20061;-64
2022/04/29 05:18:49;;;;;;;28.63;14.25;;;7.30;99.90;;;;;;5033728;28;20125;-64
2022/04/29 05:21:15;;;;;;;23.02;12.75;;;7.40;99.90;;;;;;5033761;28;20525;-62
2022/04/29 05:23:40;;;;;;;31.60;13.13;;;7.40;99.90;;;;;;5033638;28;20079;-63
2022/04/29 05:26:06;;;;;;;28.65;15.50;;;7.30;99.90;;;;;;5033272;28;20116;-62
2022/04/29 05:28:31;;;;;;;27.48;14.88;;;7.40;99.90;;;;;;5032625;28;20124;-62
2022/04/29 05:30:57;;;;;;;32.35;15.07;;;7.40;99.90;;;;;;5033460;28;20466;-64
2022/04/29 05:33:24;;;;;;;27.80;13.57;;;7.50;99.90;;;;;;5033626;28;20026;-63
2022/04/29 05:35:50;;;;;;;28.33;14.18;;;7.50;99.90;;;;;;5033492;28;20033;-62
2022/04/29 05:38:16;;;;;;;31.00;15.20;;;7.60;99.90;;;;;;5033344;28;20112;-64
2022/04/29 05:43:28;;;;;;;26.83;14.75;;;7.70;99.90;;;;;;5033164;28;20457;-61
2022/04/29 05:45:54;;;;;;;30.55;12.80;;;;;;;;;;5032967;28;20036;-63
2022/04/29 05:48:20;;;;;;;30.80;14.40;;;7.80;99.90;;;;;;5032950;28;20028;-63
2022/04/29 05:50:46;;;;;;;29.52;14.40;;;8.10;99.90;;;;;;5032471;28;20030;-64
2022/04/29 05:53:12;;;;;;;26.23;12.57;;;8.20;99.90;;;;;;5033496;28;20017;-62
2022/04/29 05:55:38;;;;;;;24.13;12.60;;;8.30;99.90;;;;;;5033173;28;20032;-62
2022/04/29 05:58:04;;;;;;;24.83;12.88;;;8.60;99.90;;;;;;5032720;28;20550;-62
2022/04/29 06:00:30;;;;;;;21.60;12.15;;;8.90;99.90;;;;;;5032250;28;20644;-64
2022/04/29 06:02:56;;;;;;;27.48;12.75;;;9.20;99.90;;;;;;5048438;28;20041;-64
2022/04/29 06:05:22;;;;;;;23.35;12.35;;;9.40;99.90;;;;;;5032522;28;20025;-61
2022/04/29 06:07:48;;;;;;;24.55;12.50;;;9.60;99.90;;;;;;5032835;28;20021;-62
2022/04/29 06:10:14;;;;;;;23.77;12.57;;;9.80;99.90;;;;;;5033833;28;20025;-63
2022/04/29 06:12:43;;;;;;;25.50;12.65;;;10.00;99.90;;;;;;5032705;28;20113;-60
2022/04/29 06:15:18;;;;;;;28.45;12.63;;;10.00;99.90;;;;;;5032914;28;20045;-64
2022/04/29 06:17:44;;;;;;;24.63;15.02;;;10.20;99.90;;;;;;5031779;28;20080;-64
2022/04/29 06:20:11;;;;;;;28.77;12.35;;;10.40;99.90;;;;;;5032678;28;20026;-62
2022/04/29 06:22:46;;;;;;;23.52;11.30;;;10.70;99.90;;;;;;5032746;28;20037;-64
2022/04/29 06:25:12;;;;;;;21.70;11.90;;;10.80;99.90;;;;;;5047422;28;20399;-63
2022/04/29 06:27:38;;;;;;;23.65;13.13;;;10.80;99.90;;;;;;5032301;28;20097;-62
2022/04/29 06:30:04;;;;;;;24.27;12.65;;;10.90;99.90;;;;;;5031212;28;20025;-61
2022/04/29 06:32:30;;;;;;;23.30;12.30;;;11.00;99.90;;;;;;5032460;28;20382;-61
2022/04/29 06:34:55;;;;;;;21.02;11.98;;;11.10;99.90;;;;;;5033122;28;20022;-63
2022/04/29 06:37:21;;;;;;;25.98;12.07;;;11.20;99.90;;;;;;5048009;28;20025;-62
2022/04/29 06:39:47;;;;;;;24.85;12.23;;;11.10;99.90;;;;;;5032423;28;20608;-63
2022/04/29 06:42:13;;;;;;;30.23;12.85;;;11.30;99.90;;;;;;5033686;28;20041;-60
2022/04/29 06:44:38;;;;;;;21.45;11.05;;;11.10;99.90;;;;;;5030782;28;20040;-62
2022/04/29 06:47:04;;;;;;;24.25;12.43;;;11.20;99.90;;;;;;5031800;28;20092;-64
2022/04/29 06:49:30;;;;;;;27.92;13.85;;;;;;;;;;5031608;28;20048;-64
2022/04/29 06:51:56;;;;;;;21.20;12.50;;;;;;;;;;5032249;28;20035;-63
2022/04/29 06:54:22;;;;;;;24.95;12.15;;;;;;;;;;5031439;28;20139;-63
2022/04/29 06:56:48;;;;;;;25.33;11.77;;;11.30;99.90;;;;;;5031722;28;20134;-62
2022/04/29 06:59:13;;;;;;;22.55;11.60;;;11.60;99.90;;;;;;5032038;28;20028;-64
2022/04/29 07:01:39;;;;;;;27.75;12.07;;;11.60;99.90;;;;;;5032169;28;20485;-64
2022/04/29 07:04:05;;;;;;;19.38;10.88;;;11.60;99.90;;;;;;5031890;28;20057;-64
2022/04/29 07:06:31;;;;;;;56.83;16.92;;;11.70;99.90;;;;;;5030708;28;20457;-64
2022/04/29 07:08:57;;;;;;;25.42;11.25;;;11.80;99.90;;;;;;5031367;28;20040;-64
2022/04/29 07:11:25;;;;;;;28.52;12.52;;;11.80;99.90;;;;;;5031826;28;20060;-65
2022/04/29 07:13:52;;;;;;;21.70;11.00;;;11.80;99.90;;;;;;5050482;28;20569;-66
2022/04/29 07:16:18;;;;;;;21.50;11.40;;;11.90;99.90;;;;;;5035053;28;20029;-65
2022/04/29 07:18:44;;;;;;;31.13;12.02;;;11.80;99.90;;;;;;5033443;28;20433;-64
2022/04/29 07:21:09;;;;;;;23.42;11.85;;;11.60;99.90;;;;;;5034351;28;20029;-64
2022/04/29 07:23:35;;;;;;;24.80;11.23;;;11.80;99.90;;;;;;5034487;28;20085;-63
2022/04/29 07:26:01;;;;;;;23.70;10.98;;;11.80;99.90;;;;;;5034466;28;20027;-63
2022/04/29 07:28:26;;;;;;;27.63;11.30;;;12.00;99.90;;;;;;5035051;28;20099;-62
2022/04/29 07:30:53;;;;;;;27.20;11.80;;;11.90;99.90;;;;;;5054101;28;20029;-65
2022/04/29 07:33:19;;;;;;;22.23;10.55;;;11.90;99.90;;;;;;5054404;28;20028;-62
2022/04/29 07:43:58;;;;;;;22.92;11.40;;;13.30;99.90;;;;;;5039075;28;20035;-61
2022/04/29 07:46:24;;;;;;;20.88;10.98;;;13.50;99.90;;;;;;5039141;28;20464;-62
2022/04/29 07:48:49;;;;;;;26.10;11.18;;;13.70;99.90;;;;;;5039376;28;20035;-62
2022/04/29 07:51:15;;;;;;;22.67;12.27;;;13.90;99.90;;;;;;5040050;28;20024;-63
2022/04/29 07:53:40;;;;;;;21.55;12.32;;;14.00;99.90;;;;;;5039288;28;20029;-63
2022/04/29 07:56:06;;;;;;;23.48;12.15;;;13.80;99.90;;;;;;5038341;28;20035;-62
2022/04/29 07:58:34;;;;;;;25.52;13.13;;;14.00;99.90;;;;;;5039874;28;20033;-62
2022/04/29 08:01:00;;;;;;;21.90;12.70;;;13.90;99.90;;;;;;5041460;28;20101;-63
2022/04/29 08:03:26;;;;;;;21.02;12.27;;;14.00;99.90;;;;;;5042010;28;20071;-63
2022/04/29 08:05:52;;;;;;;22.98;13.20;;;14.10;99.90;;;;;;5041577;28;20025;-62
2022/04/29 08:08:19;;;;;;;21.45;11.68;;;14.00;99.90;;;;;;5056893;28;20033;-61
2022/04/29 08:10:45;;;;;;;23.75;12.90;;;14.00;99.90;;;;;;5040692;28;20474;-60
2022/04/29 08:13:11;;;;;;;22.83;12.20;;;13.90;99.90;;;;;;5039075;28;20025;-61
2022/04/29 08:15:37;;;;;;;24.05;12.35;;;13.80;99.90;;;;;;5041656;28;20045;-61
2022/04/29 08:18:04;;;;;;;24.63;12.93;;;13.80;99.90;;;;;;5042361;28;20079;-63
2022/04/29 08:20:30;;;;;;;23.38;12.63;;;13.90;99.90;;;;;;5040053;28;20108;-62
2022/04/29 08:22:56;;;;;;;27.20;13.80;;;14.00;99.90;;;;;;5040489;28;20061;-60
2022/04/29 08:25:22;;;;;;;21.95;13.18;;;14.20;99.90;;;;;;5039877;28;20056;-60
2022/04/29 08:27:50;;;;;;;24.02;12.82;;;14.30;99.90;;;;;;5041366;28;20022;-60
2022/04/29 08:30:15;;;;;;;22.20;11.90;;;14.10;99.90;;;;;;5041110;28;20040;-60
2022/04/29 08:32:43;;;;;;;23.58;13.70;;;14.20;99.90;;;;;;5040497;28;20029;-58
2022/04/29 08:35:10;;;;;;;20.35;12.48;;;14.00;99.90;;;;;;5040570;28;20030;-62
2022/04/29 08:37:39;;;;;;;23.30;12.45;;;13.90;99.90;;;;;;5040590;28;20046;-55
2022/04/29 08:40:06;;;;;;;22.33;12.98;;;14.00;99.90;;;;;;5039968;28;20036;-64
2022/04/29 08:42:37;;;;;;;19.70;12.27;;;14.00;99.90;;;;;;4672223;28;9999840;-64
2022/04/29 08:45:08;;;;;;;20.58;12.60;;;13.90;99.90;;;;;;5036175;28;20770;-64
2022/04/29 08:47:39;;;;;;;23.42;12.00;;;13.90;99.90;;;;;;5032997;28;20090;-64
2022/04/29 08:50:07;;;;;;;22.30;13.07;;;13.70;99.90;;;;;;5023609;28;20050;-63
2022/04/29 08:52:34;;;;;;;24.92;12.73;;;13.60;99.90;;;;;;5030439;28;20033;-63
2022/04/29 09:00:30;;;;;;;20.55;12.57;;;13.70;99.90;;;;;;5024360;28;20049;-63
2022/04/29 09:02:55;;;;;;;28.83;13.55;;;13.80;99.90;;;;;;5028339;28;20511;-64
2022/04/29 09:05:21;;;;;;;24.42;13.15;;;13.90;99.90;;;;;;5028672;28;20061;-63
2022/04/29 09:07:52;;;;;;;25.63;14.05;;;14.30;99.90;;;;;;5031625;28;20084;-63
2022/04/29 09:10:17;;;;;;;23.17;12.80;;;14.40;99.90;;;;;;5012850;28;20037;-64
2022/04/29 09:12:43;;;;;;;20.92;13.60;;;14.20;99.90;;;;;;5017827;28;20026;-65
2022/04/29 09:15:14;;;;;;;23.42;13.38;;;14.30;99.90;;;;;;5034174;28;20061;-64
2022/04/29 09:17:45;;;;;;;26.70;13.10;;;14.30;99.90;;;;;;5034289;28;20083;-67
2022/04/29 09:20:21;;;;;;;28.25;16.38;;;13.90;99.90;;;;;;5030955;28;20037;-61
2022/04/29 09:22:49;;;;;;;24.73;14.82;;;14.20;99.90;;;;;;5021215;28;20030;-62
2022/04/29 09:25:16;;;;;;;23.40;13.05;;;14.30;99.90;;;;;;5023005;28;20113;-62
2022/04/29 09:27:59;;;;;;;23.80;13.00;;;14.40;99.90;;;;;;5020630;28;20029;-62
2022/04/29 09:30:39;;;;;;;27.38;12.93;;;14.20;99.90;;;;;;5021890;28;20018;-62
2022/04/29 09:33:06;;;;;;;25.02;13.73;;;14.50;99.90;;;;;;5021886;28;20022;-63
2022/04/29 09:35:42;;;;;;;24.08;13.77;;;14.60;99.90;;;;;;5019685;28;20022;-63
2022/04/29 09:40:55;;;;;;;20.92;12.85;;;14.70;99.90;;;;;;5031001;28;20106;-62
2022/04/29 09:43:42;;;;;;;26.65;13.45;;;14.90;99.90;;;;;;5022243;28;20025;-62
2022/04/29 09:46:23;;;;;;;22.60;14.40;;;14.90;99.90;;;;;;5023008;28;20033;-63
2022/04/29 09:49:04;;;;;;;24.15;13.73;;;14.90;99.90;;;;;;5013183;28;20033;-64
2022/04/29 09:51:45;;;;;;;20.92;12.40;;;14.80;99.90;;;;;;5021634;28;20064;-63
2022/04/29 09:54:11;;;;;;;22.00;13.88;;;14.90;99.90;;;;;;5026184;28;20024;-65
2022/04/29 09:56:38;;;;;;;21.50;13.23;;;14.80;99.90;;;;;;5034105;28;20025;-65
2022/04/29 09:59:05;;;;;;;25.70;14.30;;;15.40;99.90;;;;;;5027989;28;20037;-65
2022/04/29 10:01:31;;;;;;;23.20;13.85;;;15.40;99.90;;;;;;5024506;28;20692;-66
2022/04/29 10:03:59;;;;;;;23.20;14.15;;;14.90;99.90;;;;;;5033126;28;20445;-66
2022/04/29 10:06:26;;;;;;;27.63;15.38;;;15.10;99.90;;;;;;5035238;28;20025;-65
2022/04/29 10:08:52;;;;;;;30.75;15.27;;;15.20;99.90;;;;;;5033824;28;20033;-65
2022/04/29 10:11:23;;;;;;;22.52;14.05;;;15.20;99.90;;;;;;5035846;28;20025;-65
2022/04/29 10:13:50;;;;;;;25.02;14.20;;;15.40;99.90;;;;;;5020191;28;20084;-67
2022/04/29 10:16:18;;;;;;;25.60;15.43;;;15.40;99.90;;;;;;5030988;28;20025;-64
2022/04/29 10:21:40;;;;;;;29.90;15.32;;;15.60;99.90;;;;;;5014507;28;20036;-64
2022/04/29 10:24:06;;;;;;;24.60;15.52;;;15.50;99.90;;;;;;5013777;28;20040;-65
2022/04/29 10:26:32;;;;;;;26.05;16.67;;;15.70;99.90;;;;;;4673985;28;10000535;-65
2022/04/29 10:28:59;;;;;;;25.25;14.57;;;15.90;99.90;;;;;;5031124;28;20026;-64
2022/04/29 10:31:29;;;;;;;21.70;14.25;;;16.10;99.60;;;;;;5031138;28;20108;-65
2022/04/29 10:34:14;;;;;;;26.58;14.85;;;15.50;99.40;;;;;;5031200;28;20060;-64
2022/04/29 10:36:46;;;;;;;62.65;37.65;;;15.80;99.70;;;;;;5028808;28;20112;-66
2022/04/29 10:39:19;;;;;;;161.50;120.57;;;16.10;99.10;;;;;;5021131;28;20432;-66
2022/04/29 10:42:03;;;;;;;25.65;14.55;;;16.20;98.10;;;;;;5027014;28;20115;-65
2022/04/29 10:44:31;;;;;;;23.33;13.85;;;15.90;98.10;;;;;;5023458;28;20018;-65
2022/04/29 10:47:17;;;;;;;23.75;14.02;;;16.00;98.50;;;;;;5025834;28;20032;-64
2022/04/29 10:49:43;;;;;;;26.20;14.27;;;;;;;;;;5023362;28;20248;-64
2022/04/29 10:52:23;;;;;;;26.08;14.65;;;;;;;;;;5032027;28;20021;-64
2022/04/29 10:54:55;;;;;;;25.38;14.43;;;16.50;98.40;;;;;;5038013;28;20022;-67
2022/04/29 10:57:42;;;;;;;22.77;13.32;;;17.30;96.50;;;;;;5031122;28;20399;-64
2022/04/29 11:00:11;;;;;;;21.27;12.88;;;17.30;95.80;;;;;;5014782;28;20026;-64
2022/04/29 11:02:37;;;;;;;23.65;15.20;;;17.20;96.10;;;;;;5018181;28;20029;-65
2022/04/29 11:05:03;;;;;;;18.90;12.90;;;17.50;95.10;;;;;;5014819;28;20025;-65
2022/04/29 11:07:34;;;;;;;20.20;12.70;;;17.80;94.20;;;;;;5017867;28;20030;-65
2022/04/29 11:10:00;;;;;;;23.52;13.07;;;17.30;94.20;;;;;;5031642;28;20053;-66
2022/04/29 11:12:30;;;;;;;24.23;13.70;;;17.60;94.50;;;;;;5021147;28;20032;-66
2022/04/29 11:15:16;;;;;;;24.85;16.40;;;17.80;93.80;;;;;;5037447;28;20026;-63
2022/04/29 11:17:43;;;;;;;23.55;13.88;;;18.30;94.40;;;;;;5037402;28;20056;-66
2022/04/29 11:20:18;;;;;;;22.80;14.05;;;18.00;93.20;;;;;;5034566;28;20029;-66
2022/04/29 11:25:59;;;;;;;21.38;13.20;;;18.00;92.90;;;;;;5035099;28;20060;-64
2022/04/29 11:28:26;;;;;;;19.95;12.95;;;17.60;92.80;;;;;;5034660;28;20026;-64
2022/04/29 11:31:06;;;;;;;22.83;13.00;;;17.70;92.90;;;;;;5019681;28;20018;-63
2022/04/29 11:33:33;;;;;;;22.45;13.35;;;17.70;93.40;;;;;;5012230;28;20022;-64
2022/04/29 11:36:07;;;;;;;23.00;13.90;;;17.50;93.30;;;;;;5012557;28;20094;-63
2022/04/29 11:38:41;;;;;;;21.55;13.13;;;17.60;93.20;;;;;;5014583;28;20022;-64
2022/04/29 11:41:07;;;;;;;24.13;14.35;;;17.20;92.90;;;;;;5015167;28;20053;-65
2022/04/29 11:43:33;;;;;;;20.23;12.07;;;17.00;93.00;;;;;;5015697;28;20100;-64
2022/04/29 11:46:02;;;;;;;26.05;13.85;;;17.00;92.70;;;;;;5012963;28;20061;-66
2022/04/29 11:48:28;;;;;;;;;;;17.20;93.00;;;;;;5012237;28;20482;-62
2022/04/29 11:50:57;;;;;;;21.23;12.48;;;17.40;92.30;;;;;;5012021;28;19959;-64
2022/04/29 11:53:23;;;;;;;21.80;12.70;;;17.30;92.00;;;;;;5011865;28;20021;-67
2022/04/29 11:55:52;;;;;;;21.05;13.00;;;17.20;92.00;;;;;;5018296;28;20155;-67
2022/04/29 11:58:18;;;;;;;21.02;13.02;;;17.20;91.60;;;;;;5032077;28;20029;-68
2022/04/29 12:00:55;;;;;;;20.20;13.15;;;17.50;91.80;;;;;;5031657;28;20037;-67
2022/04/29 12:03:22;;;;;;;22.23;12.57;;;18.10;91.40;;;;;;5030365;28;20055;-67
2022/04/29 12:05:48;;;;;;;20.83;12.80;;;;;;;;;;5020457;28;20057;-68
2022/04/29 12:08:15;;;;;;;20.38;12.90;;;;;;;;;;5023040;28;20041;-68
2022/04/29 12:10:45;;;;;;;22.40;13.65;;;;;;;;;;5081088;22;20052;-60
2022/04/29 12:13:11;;;;;;;20.80;13.77;;;;;;;;;;5056140;28;20040;-57
2022/04/29 12:15:38;;;;;;;22.55;13.50;;;;;;;;;;5067153;28;20099;-58
2022/04/29 12:18:07;;;;;;;21.30;13.02;;;18.40;91.00;;;;;;5069208;28;20437;-61
2022/04/29 12:20:33;;;;;;;21.33;13.45;;;20.30;87.20;;;;;;5070107;28;20025;-63
2022/04/29 12:23:12;;;;;;;18.70;12.73;;;21.20;84.50;;;;;;5069134;28;20135;-62
2022/04/29 12:25:42;;;;;;;22.33;13.48;;;21.50;83.60;;;;;;5070503;28;20147;-60
2022/04/29 12:28:10;;;;;;;23.90;14.00;;;22.00;81.00;;;;;;5070587;28;20542;-61
2022/04/29 12:36:15;;;;;;;19.63;14.05;;;21.90;78.10;;;;;;5070829;28;20093;-59
2022/04/29 12:38:43;;;;;;;22.48;15.00;;;21.80;77.80;;;;;;5069517;28;20024;-59
2022/04/29 12:41:24;;;;;;;21.40;14.63;;;21.80;77.90;;;;;;5070609;28;20025;-59
2022/04/29 12:43:52;;;;;;;24.73;14.15;;;21.30;77.30;;;;;;5070350;28;20031;-61
2022/04/29 12:46:21;;;;;;;20.60;13.50;;;20.90;78.70;;;;;;5070362;28;20024;-56
2022/04/29 12:48:53;;;;;;;27.30;15.13;;;20.30;78.30;;;;;;5070928;28;20553;-59
2022/04/29 12:51:37;;;;;;;21.80;14.35;;;19.60;78.10;;;;;;5070637;28;20121;-59
2022/04/29 12:54:22;;;;;;;19.95;12.98;;;19.50;79.60;;;;;;5069004;28;20032;-61
2022/04/29 12:56:51;;;;;;;21.35;13.35;;;20.30;80.00;;;;;;5070230;28;20581;-58
2022/04/29 12:59:22;;;;;;;22.48;13.60;;;20.40;77.40;;;;;;5071044;28;20084;-60
2022/04/29 13:01:48;;;;;;;20.45;12.65;;;20.10;78.80;;;;;;5072891;28;20032;-58
2022/04/29 13:04:13;;;;;;;22.13;12.43;;;20.40;78.60;;;;;;5072257;28;20110;-59
2022/04/29 13:06:39;;;;;;;23.60;13.48;;;20.50;78.80;;;;;;5072160;28;20057;-63
2022/04/29 13:09:04;;;;;;;22.65;14.50;;;21.20;76.20;;;;;;4718284;28;10000578;-63
2022/04/29 13:11:32;;;;;;;27.88;14.77;;;21.30;75.60;;;;;;5070257;28;20025;-62
2022/04/29 13:13:58;;;;;;;21.30;14.43;;;21.40;75.70;;;;;;5069686;28;20594;-59
2022/04/29 13:16:24;;;;;;;23.60;15.38;;;22.10;74.50;;;;;;5068054;28;20614;-63
2022/04/29 13:18:50;;;;;;;19.70;14.52;;;22.50;73.60;;;;;;5068042;28;20115;-62
2022/04/29 13:21:17;;;;;;;26.40;14.55;;;22.90;71.30;;;;;;5069761;28;20031;-61
2022/04/29 13:23:45;;;;;;;23.77;13.52;;;22.80;72.90;;;;;;5070117;28;20166;-61
2022/04/29 13:26:13;;;;;;;23.95;14.32;;;23.70;71.70;;;;;;5069566;28;20121;-61
2022/04/29 13:28:39;;;;;;;22.27;14.38;;;23.20;70.50;;;;;;5069528;28;20055;-61
2022/04/29 13:31:06;;;;;;;22.63;14.05;;;23.40;70.10;;;;;;5069054;28;20042;-61
2022/04/29 13:33:32;;;;;;;20.63;14.98;;;23.10;69.60;;;;;;5069211;28;20021;-58
2022/04/29 13:35:58;;;;;;;22.70;15.07;;;22.00;70.20;;;;;;5068694;28;20060;-61
2022/04/29 13:38:24;;;;;;;22.77;16.10;;;22.10;71.90;;;;;;5065856;28;20036;-62
2022/04/29 13:40:51;;;;;;;25.42;16.10;;;20.80;70.90;;;;;;5069257;28;20040;-61